CheckWX is a tool to help pilots better visualize weather data.  It is not intended as a substitute for an official pre-flight weather briefing.

22:16:44 UTC

3T5 METAR
Fayette Regional Air Center Airport
La Grange, Texas, USA
Current

42 mins ago

K3T5 152135Z AUTO 19004KT 10SM CLR 35/25 A2986 RMK AO2 T03510249
Observed
Jul-15 @ 21:35 UTC
Wind
  • 190° at 4 KTS
Visibility
10 SM
Flight Rules
VFR
Cloud Levels
  • Clear skies
Temperature
35°C / 95°F
Dewpoint
25°C / 77°F
Heat Index
43°C / 110°F
Humidity
56%
Altimeter
29.86" Hg
Pressure
1011.22 hPa
Previous

1 hour ago

K3T5 152115Z AUTO 20004KT 10SM CLR 35/25 A2987 RMK AO2 T03510247
Observed
Jul-15 @ 21:15 UTC
Wind
  • 200° at 4 KTS
Visibility
10 SM
Flight Rules
VFR
Cloud Levels
  • Clear skies
Temperature
35°C / 95°F
Dewpoint
25°C / 77°F
Heat Index
43°C / 110°F
Humidity
56%
Altimeter
29.87" Hg
Pressure
1011.52 hPa
Previous

1 hour ago

K3T5 152055Z AUTO 15004KT 10SM CLR 35/24 A2988 RMK AO2 T03500240
Observed
Jul-15 @ 20:55 UTC
Wind
  • 150° at 4 KTS
Visibility
10 SM
Flight Rules
VFR
Cloud Levels
  • Clear skies
Temperature
35°C / 95°F
Dewpoint
24°C / 75°F
Heat Index
42°C / 107°F
Humidity
53%
Altimeter
29.88" Hg
Pressure
1011.82 hPa